Címlap Spotter Aktuális időjárásjelentés, előrejelzés Debrecen Airport (METAR/TAF LHDC/DEB)

Aktuális időjárásjelentés, előrejelzés Debrecen Airport (METAR/TAF LHDC/DEB)

Aktuális szöveges időjárásjelentés / METAR DEB/LHDC és 24 órás szöveges időjárás-előrejelzés / TAF DEB/LHDCDebrecen Airport

Available data for LHDC from the past 6 hours
Metar
LHDC 260815Z AUTO 20013KT 160V230 8000 NCD 24/11 Q1017 NOSIG

08:15 UTC

Wind: 200° 13kt

Visibility: 8000 m

Sky:

Temp: 24 deg C / 75.2 deg F

Dewpoint: 11 deg C / 51.8 deg F

Pressure: 1017 hPa

TAF
TAF LHDC 260515Z 2606/2615 17005KT CAVOK BECMG 2606/2609 20012KT

Európa műholdkép

Data is taken from the National Weather Service at NOAA. Satelite image by AustroControl & Meteo-Mc. Only for spotters, do not use for real flight!

A METAR és a TAF adatok a National Weather Service adatbázisából származnak. Az oldalon közölt adatok tájékoztató jellegűek, az oldal üzemeltetője nem vállal felelősséget ezek esetleges pontatlanságáért. Ne használd valós repüléshez!

Néhány hasznos infó, mielőtt repülőre szállsz